Time;durP1;ratioP1;P1;durP2;ratioP2;P2;SDS_P1;SDS_P2;PMS_P1;PMS_P2;Temp;Humidity;BMP_temperature;BMP_pressure;BME280_temperature;BME280_humidity;BME280_pressure;Samples;Min_cycle;Max_cycle;Signal;HPM_P1;HPM_P2
2022/04/26 03:36:06;;;;;;;18.90;13.75;;;10.80;99.90;;;;;;4959617;28;40127;-81
2022/04/26 03:36:06;;;;;;;4.93;3.20;;;8.50;99.90;;;;;;4995885;28;40487;-82
2022/04/26 03:38:33;;;;;;;6.73;3.40;;;8.60;99.90;;;;;;4970465;28;47519;-82
2022/04/26 03:41:00;;;;;;;5.30;4.13;;;8.60;99.90;;;;;;4998617;28;37576;-82
2022/04/26 03:43:27;;;;;;;9.47;3.80;;;8.50;99.90;;;;;;4993449;28;39464;-82
2022/04/26 03:45:54;;;;;;;6.57;3.80;;;8.50;99.90;;;;;;4980452;28;38240;-82
2022/04/26 03:48:20;;;;;;;7.60;3.87;;;8.50;99.90;;;;;;4990333;28;38292;-82
2022/04/26 03:50:50;;;;;;;7.17;4.47;;;8.50;99.90;;;;;;4975431;28;38258;-82
2022/04/26 03:53:16;;;;;;;8.03;4.17;;;8.50;99.90;;;;;;4977538;28;38267;-82
2022/04/26 03:55:42;;;;;;;8.80;3.97;;;8.50;99.90;;;;;;4985942;28;41610;-82
2022/04/26 03:58:08;;;;;;;9.57;4.83;;;8.50;99.90;;;;;;4990481;28;37720;-81
2022/04/26 04:00:34;;;;;;;8.73;4.63;;;8.60;99.90;;;;;;5003342;28;35331;-82
2022/04/26 04:03:00;;;;;;;8.53;4.63;;;8.50;99.90;;;;;;5000576;28;39229;-83
2022/04/26 04:05:34;;;;;;;9.67;5.30;;;8.50;99.90;;;;;;4985372;28;38987;-82
2022/04/26 04:08:02;;;;;;;14.70;5.50;;;8.50;99.90;;;;;;4986191;28;38251;-82
2022/04/26 04:10:31;;;;;;;11.80;4.67;;;8.50;99.90;;;;;;5000325;28;48582;-82
2022/04/26 04:13:00;;;;;;;7.67;5.30;;;8.50;99.90;;;;;;5004178;28;38144;-83
2022/04/26 04:15:26;;;;;;;11.23;4.70;;;8.50;99.90;;;;;;4986288;28;38011;-81
2022/04/26 04:17:53;;;;;;;9.87;4.87;;;8.50;99.90;;;;;;4975082;28;39673;-82
2022/04/26 04:20:20;;;;;;;10.27;6.43;;;8.50;99.90;;;;;;4982419;28;36517;-81
2022/04/26 04:22:49;;;;;;;11.30;5.63;;;8.50;99.90;;;;;;4979892;28;39941;-82
2022/04/26 04:25:16;;;;;;;13.53;5.80;;;8.50;99.90;;;;;;4980282;28;38310;-82
2022/04/26 04:27:42;;;;;;;12.43;6.03;;;8.50;99.90;;;;;;4993441;28;37601;-82
2022/04/26 04:30:10;;;;;;;12.50;6.00;;;8.40;99.90;;;;;;4999729;28;37545;-82
2022/04/26 04:32:42;;;;;;;12.40;7.20;;;8.50;99.90;;;;;;5013243;28;37846;-83
2022/04/26 04:35:08;;;;;;;11.25;6.93;;;8.40;99.90;;;;;;4998804;28;38420;-82
2022/04/26 04:37:38;;;;;;;11.77;6.57;;;8.40;99.90;;;;;;4978139;28;37801;-82
2022/04/26 04:40:09;;;;;;;11.37;7.20;;;8.40;99.90;;;;;;4994136;28;38958;-82
2022/04/26 04:42:35;;;;;;;14.67;6.70;;;8.40;99.90;;;;;;4972025;28;37644;-82
2022/04/26 04:45:02;;;;;;;18.43;8.10;;;8.40;99.90;;;;;;5003576;28;39152;-82
2022/04/26 04:47:29;;;;;;;15.30;6.70;;;8.40;99.90;;;;;;4979657;28;47831;-82
2022/04/26 04:49:55;;;;;;;10.33;6.80;;;8.40;99.90;;;;;;4983866;28;36474;-82
2022/04/26 04:52:36;;;;;;;15.00;7.77;;;8.40;99.90;;;;;;4981737;28;37776;-82
2022/04/26 04:55:02;;;;;;;11.57;6.80;;;8.40;99.90;;;;;;4977518;28;37716;-81
2022/04/26 04:57:29;;;;;;;12.13;7.70;;;8.50;99.90;;;;;;5004047;28;48683;-82
2022/04/26 05:00:03;;;;;;;11.23;7.30;;;8.40;99.90;;;;;;5002377;28;37890;-82
2022/04/26 05:02:29;;;;;;;13.47;7.70;;;8.40;99.90;;;;;;4975602;28;47553;-81
2022/04/26 05:04:55;;;;;;;14.20;7.07;;;8.50;99.90;;;;;;4992602;28;38393;-82
2022/04/26 05:07:24;;;;;;;11.07;7.57;;;8.50;99.90;;;;;;4983160;28;36231;-81
2022/04/26 05:09:53;;;;;;;10.73;6.70;;;8.50;99.90;;;;;;4986160;28;37432;-81
2022/04/26 05:12:25;;;;;;;10.87;7.40;;;8.50;99.90;;;;;;4991166;28;37795;-80
2022/04/26 05:14:57;;;;;;;18.00;7.10;;;8.50;99.90;;;;;;4981551;28;38018;-82
2022/04/26 05:17:26;;;;;;;13.73;6.68;;;8.50;99.90;;;;;;4983544;28;37374;-82
2022/04/26 05:19:52;;;;;;;14.97;7.07;;;8.50;99.90;;;;;;4998413;28;37536;-82
2022/04/26 05:22:18;;;;;;;13.33;7.37;;;8.50;99.90;;;;;;5000035;28;39405;-82
2022/04/26 05:24:54;;;;;;;14.27;6.70;;;8.50;99.90;;;;;;5015227;28;39087;-82
2022/04/26 05:27:34;;;;;;;12.33;7.20;;;8.50;99.90;;;;;;5006864;28;39794;-82
2022/04/26 05:30:00;;;;;;;13.70;6.87;;;8.50;99.90;;;;;;4998064;28;39233;-82
2022/04/26 05:32:28;;;;;;;14.80;7.87;;;8.60;99.90;;;;;;5000369;28;38717;-83
2022/04/26 05:35:00;;;;;;;18.97;7.00;;;8.60;99.90;;;;;;4987024;28;35911;-82
2022/04/26 05:37:27;;;;;;;15.18;6.43;;;8.50;99.90;;;;;;4982694;28;39044;-81
2022/04/26 05:39:55;;;;;;;17.30;7.07;;;8.50;99.90;;;;;;4977754;28;35004;-80
2022/04/26 05:42:21;;;;;;;11.53;6.63;;;8.50;99.90;;;;;;5002207;28;39021;-81
2022/04/26 05:44:47;;;;;;;15.57;6.87;;;8.50;99.90;;;;;;5015320;28;41038;-82
2022/04/26 05:47:14;;;;;;;14.17;7.10;;;8.40;99.90;;;;;;5007432;28;38903;-81
2022/04/26 05:49:40;;;;;;;18.60;6.93;;;8.50;99.90;;;;;;4992745;28;34644;-80
2022/04/26 05:52:06;;;;;;;23.30;7.17;;;8.40;99.90;;;;;;4988215;28;38369;-81
2022/04/26 05:54:33;;;;;;;10.90;6.80;;;8.30;99.90;;;;;;4988916;28;38052;-81
2022/04/26 05:57:00;;;;;;;17.03;6.90;;;8.30;99.90;;;;;;5001963;28;37898;-82
2022/04/26 05:59:27;;;;;;;17.07;7.20;;;8.30;99.90;;;;;;4989691;28;39406;-82
2022/04/26 06:01:53;;;;;;;21.90;7.37;;;8.30;99.90;;;;;;4995401;28;39782;-82
2022/04/26 06:04:20;;;;;;;17.87;6.97;;;8.40;99.90;;;;;;4996725;28;38264;-82
2022/04/26 06:06:46;;;;;;;13.10;6.60;;;8.40;99.90;;;;;;4982102;28;38145;-81
2022/04/26 06:09:15;;;;;;;13.53;6.60;;;8.50;99.90;;;;;;5006767;28;37464;-82
2022/04/26 06:11:41;;;;;;;14.83;7.60;;;8.50;99.90;;;;;;4981838;28;37797;-82
2022/04/26 06:14:08;;;;;;;12.80;6.50;;;8.60;99.90;;;;;;4985141;28;38067;-82
2022/04/26 06:16:34;;;;;;;12.10;7.20;;;8.70;99.90;;;;;;4989469;28;37806;-80
2022/04/26 06:19:01;;;;;;;12.57;6.80;;;8.70;99.90;;;;;;5003490;28;37422;-80
2022/04/26 06:21:27;;;;;;;11.20;6.63;;;8.70;99.90;;;;;;4987482;28;38089;-80
2022/04/26 06:23:53;;;;;;;12.83;6.27;;;8.80;99.90;;;;;;4989496;28;37763;-79
2022/04/26 06:26:19;;;;;;;19.40;7.88;;;8.80;99.90;;;;;;5002945;28;39449;-80
2022/04/26 06:28:45;;;;;;;19.47;7.40;;;8.90;99.90;;;;;;4986086;28;36887;-79
2022/04/26 06:31:11;;;;;;;15.77;6.73;;;8.90;99.90;;;;;;4984006;28;39077;-79
2022/04/26 06:33:40;;;;;;;15.57;5.97;;;8.90;99.90;;;;;;4978011;28;37899;-80
2022/04/26 06:36:07;;;;;;;10.27;5.10;;;8.80;99.90;;;;;;4995802;28;37922;-80
2022/04/26 06:38:33;;;;;;;12.15;5.75;;;8.90;99.90;;;;;;4997465;28;37789;-80
2022/04/26 06:41:00;;;;;;;21.63;6.90;;;8.90;99.90;;;;;;4969526;28;37782;-81
2022/04/26 06:43:29;;;;;;;13.33;5.93;;;9.00;99.90;;;;;;4990810;28;46020;-80
2022/04/26 06:45:55;;;;;;;13.57;6.17;;;9.00;99.90;;;;;;4989191;28;39694;-80
2022/04/26 06:48:21;;;;;;;10.20;5.30;;;8.90;99.90;;;;;;4990835;28;37091;-79
2022/04/26 06:50:48;;;;;;;12.20;5.82;;;8.90;99.90;;;;;;4980223;28;36812;-80
2022/04/26 06:53:15;;;;;;;15.23;5.57;;;8.90;99.90;;;;;;4997566;28;39122;-79
2022/04/26 06:55:41;;;;;;;16.27;6.37;;;8.80;99.90;;;;;;4983948;28;39187;-80
2022/04/26 06:58:09;;;;;;;11.13;5.83;;;8.90;99.90;;;;;;5003598;28;37438;-81
2022/04/26 07:00:35;;;;;;;16.40;6.57;;;8.90;99.90;;;;;;4978194;28;37601;-80
2022/04/26 07:03:01;;;;;;;20.77;7.17;;;8.90;99.90;;;;;;4999032;28;38987;-81
2022/04/26 07:05:27;;;;;;;16.13;6.23;;;8.90;99.90;;;;;;4983339;28;40217;-81
2022/04/26 07:07:53;;;;;;;12.65;5.72;;;9.10;99.90;;;;;;4971241;28;37697;-80
2022/04/26 07:10:21;;;;;;;14.95;6.18;;;9.30;99.90;;;;;;5011083;28;38429;-80
2022/04/26 07:12:47;;;;;;;12.30;5.80;;;9.50;99.90;;;;;;4993308;28;38280;-81
2022/04/26 07:15:14;;;;;;;14.25;5.35;;;9.70;99.90;;;;;;5000947;28;38042;-81
2022/04/26 07:17:44;;;;;;;11.73;5.53;;;9.90;99.90;;;;;;4993270;28;37571;-81
2022/04/26 07:20:11;;;;;;;10.70;4.57;;;10.30;99.90;;;;;;5011465;28;39304;-81
2022/04/26 07:22:53;;;;;;;11.77;4.53;;;10.50;99.90;;;;;;4998210;28;38274;-80
2022/04/26 07:25:19;;;;;;;14.60;4.80;;;10.50;99.90;;;;;;4995077;28;38968;-82
2022/04/26 07:27:45;;;;;;;12.73;4.88;;;10.40;99.90;;;;;;4983232;28;37353;-81
2022/04/26 07:30:20;;;;;;;7.70;4.28;;;10.50;99.90;;;;;;4992161;28;38660;-80
2022/04/26 07:35:43;;;;;;;14.68;4.50;;;10.70;99.90;;;;;;4977917;23;50541;-77
2022/04/26 07:38:10;;;;;;;8.57;4.55;;;11.00;99.90;;;;;;4985682;28;38724;-78
2022/04/26 07:40:36;;;;;;;9.55;3.35;;;11.20;99.90;;;;;;4962195;28;39777;-79
2022/04/26 07:43:04;;;;;;;13.00;3.20;;;11.60;99.90;;;;;;4981821;28;39112;-81
2022/04/26 07:45:31;;;;;;;13.50;3.30;;;11.50;99.90;;;;;;4983365;28;37486;-80
2022/04/26 07:47:59;;;;;;;9.77;3.28;;;11.50;99.90;;;;;;4984440;28;37307;-80
2022/04/26 07:50:25;;;;;;;10.27;2.95;;;11.60;99.90;;;;;;4989083;28;38631;-81
2022/04/26 07:52:52;;;;;;;9.15;3.90;;;11.70;99.90;;;;;;4970631;28;39498;-80
2022/04/26 07:55:18;;;;;;;8.50;3.22;;;11.80;99.90;;;;;;4971881;28;40243;-81
2022/04/26 07:57:44;;;;;;;10.68;3.47;;;12.00;99.90;;;;;;4969640;28;35941;-81
2022/04/26 08:00:11;;;;;;;10.98;3.95;;;11.90;99.90;;;;;;4969254;28;37320;-81
2022/04/26 08:02:37;;;;;;;9.25;3.88;;;11.90;99.90;;;;;;4959769;28;39794;-80
2022/04/26 08:05:04;;;;;;;9.77;4.30;;;11.80;99.90;;;;;;4972391;28;40144;-79
2022/04/26 08:07:31;;;;;;;11.50;4.57;;;11.60;99.90;;;;;;4983363;28;36885;-80
2022/04/26 08:09:58;;;;;;;9.45;3.80;;;11.50;99.90;;;;;;4969864;28;37981;-81
2022/04/26 08:12:24;;;;;;;7.68;3.63;;;11.60;99.90;;;;;;4981473;28;39474;-80
2022/04/26 08:14:50;;;;;;;10.73;4.78;;;11.50;99.90;;;;;;4961744;28;39898;-79
2022/04/26 08:17:17;;;;;;;10.45;3.28;;;11.60;99.90;;;;;;4981066;28;37008;-80
2022/04/26 08:19:43;;;;;;;9.43;4.35;;;11.50;99.90;;;;;;4944469;28;39289;-81
2022/04/26 08:22:10;;;;;;;7.40;4.18;;;11.50;99.90;;;;;;4957574;28;37874;-79
2022/04/26 08:27:25;;;;;;;8.05;4.20;;;11.90;99.90;;;;;;4976726;28;37644;-81
2022/04/26 08:29:55;;;;;;;8.88;4.22;;;12.30;99.90;;;;;;4964950;28;40674;-81
2022/04/26 08:32:23;;;;;;;7.93;4.40;;;12.00;99.90;;;;;;4979504;28;38918;-80
2022/04/26 08:34:49;;;;;;;10.73;4.00;;;11.90;99.90;;;;;;4966419;28;38719;-79
2022/04/26 08:37:15;;;;;;;9.15;4.43;;;12.20;99.90;;;;;;4973861;28;37940;-80
2022/04/26 08:39:41;;;;;;;15.52;4.78;;;12.30;99.90;;;;;;4970025;28;40467;-81
2022/04/26 08:42:11;;;;;;;12.45;3.95;;;12.60;99.90;;;;;;4971487;28;39963;-81
2022/04/26 08:44:38;;;;;;;8.52;3.30;;;12.70;99.90;;;;;;4988470;28;39064;-81
2022/04/26 08:52:49;;;;;;;5.25;2.90;;;12.80;99.90;;;;;;4990376;28;49392;-80
2022/04/26 08:55:16;;;;;;;7.03;3.60;;;13.00;99.90;;;;;;4968025;28;40450;-81
2022/04/26 08:57:42;;;;;;;9.45;3.47;;;13.30;99.90;;;;;;4971835;28;38257;-80
2022/04/26 09:00:11;;;;;;;7.32;3.15;;;13.50;99.90;;;;;;4996368;28;39105;-80
2022/04/26 09:02:39;;;;;;;8.13;3.50;;;13.50;99.90;;;;;;4994489;28;41339;-80
2022/04/26 09:05:14;;;;;;;7.18;3.15;;;13.40;99.90;;;;;;4989333;28;38812;-80
2022/04/26 09:07:44;;;;;;;11.68;3.80;;;13.40;99.90;;;;;;4986162;28;36602;-81
2022/04/26 09:10:13;;;;;;;6.15;3.00;;;13.60;99.90;;;;;;4987823;28;39407;-79
2022/04/26 09:13:04;;;;;;;6.00;2.92;;;13.60;99.90;;;;;;4973686;28;39468;-80
2022/04/26 09:15:37;;;;;;;8.48;4.15;;;13.50;99.90;;;;;;4976798;28;46834;-81
2022/04/26 09:18:30;;;;;;;6.43;2.92;;;13.60;99.90;;;;;;4964968;28;37200;-80
2022/04/26 09:21:09;;;;;;;9.27;3.42;;;13.80;99.90;;;;;;4991600;28;38345;-78
2022/04/26 09:23:39;;;;;;;7.57;3.00;;;13.80;99.90;;;;;;4974249;28;48120;-79
2022/04/26 09:26:11;;;;;;;7.00;3.40;;;14.10;99.90;;;;;;4987832;28;40188;-80
2022/04/26 09:28:46;;;;;;;7.00;3.03;;;14.50;99.90;;;;;;4982357;28;37927;-80
2022/04/26 09:31:22;;;;;;;8.20;2.72;;;14.40;99.90;;;;;;4969271;28;38214;-81
2022/04/26 09:33:52;;;;;;;6.18;2.58;;;14.80;99.90;;;;;;4959500;28;39513;-81
2022/04/26 09:36:21;;;;;;;4.60;2.28;;;15.40;99.90;;;;;;4960889;28;39313;-82
2022/04/26 09:38:59;;;;;;;9.43;2.40;;;15.10;99.90;;;;;;4965610;28;37338;-80
2022/04/26 09:41:26;;;;;;;7.63;2.45;;;14.90;99.90;;;;;;4966528;28;39276;-82
2022/04/26 09:43:58;;;;;;;6.78;1.88;;;14.70;99.90;;;;;;4992472;28;39126;-81
2022/04/26 09:46:28;;;;;;;5.65;2.47;;;14.60;99.90;;;;;;4987974;28;37957;-82
2022/04/26 09:48:54;;;;;;;5.30;2.15;;;14.40;99.90;;;;;;4969679;28;37673;-78
2022/04/26 09:51:20;;;;;;;3.13;2.15;;;14.10;99.90;;;;;;4964653;28;37880;-81
2022/04/26 09:53:46;;;;;;;5.43;2.10;;;14.60;99.90;;;;;;4977620;28;39098;-82
2022/04/26 09:56:13;;;;;;;5.88;2.22;;;15.40;99.90;;;;;;4984951;28;38737;-83
2022/04/26 09:58:42;;;;;;;7.22;2.42;;;15.70;99.90;;;;;;4980459;28;39019;-82
2022/04/26 10:01:09;;;;;;;4.57;2.17;;;15.70;99.90;;;;;;4972814;28;37833;-84
2022/04/26 10:03:39;;;;;;;8.52;2.30;;;16.20;99.90;;;;;;4966510;28;39735;-80
2022/04/26 10:06:07;;;;;;;6.28;2.75;;;16.10;99.90;;;;;;4976436;28;39086;-83
2022/04/26 10:08:35;;;;;;;7.47;2.83;;;15.00;99.90;;;;;;4961551;28;38820;-81
2022/04/26 10:11:04;;;;;;;5.53;3.13;;;14.50;99.90;;;;;;4958274;28;40730;-80
2022/04/26 10:13:36;;;;;;;6.68;2.53;;;14.10;99.90;;;;;;4967450;28;37801;-78
2022/04/26 10:16:16;;;;;;;7.28;3.13;;;13.70;99.90;;;;;;4971305;28;39348;-80
2022/04/26 10:18:45;;;;;;;7.78;3.10;;;13.60;99.90;;;;;;4971162;28;36326;-81
2022/04/26 10:21:22;;;;;;;5.57;3.08;;;13.50;99.90;;;;;;4986648;28;39330;-81
2022/04/26 10:23:51;;;;;;;9.95;3.42;;;13.50;99.90;;;;;;4971309;28;40064;-82
2022/04/26 10:26:22;;;;;;;7.20;2.90;;;13.80;99.90;;;;;;4973176;28;39600;-81
2022/04/26 10:28:59;;;;;;;7.38;3.10;;;14.10;99.90;;;;;;4968382;28;38088;-77
2022/04/26 10:31:49;;;;;;;6.95;2.75;;;14.80;99.90;;;;;;4958448;28;39486;-80
2022/04/26 10:34:24;;;;;;;6.53;2.88;;;15.80;99.90;;;;;;4960345;28;40666;-82
2022/04/26 10:36:51;;;;;;;6.70;2.92;;;15.90;99.90;;;;;;4953541;28;37514;-84
2022/04/26 10:39:21;;;;;;;5.13;2.45;;;15.80;99.90;;;;;;4961461;28;36623;-89
2022/04/26 10:41:47;;;;;;;5.00;2.95;;;15.90;99.90;;;;;;4979687;28;38823;-83
2022/04/26 10:44:16;;;;;;;9.43;3.10;;;15.80;99.90;;;;;;4974539;28;38965;-79
2022/04/26 10:47:09;;;;;;;5.05;2.50;;;15.80;99.90;;;;;;4961109;28;37503;-85
2022/04/26 10:49:38;;;;;;;4.63;2.30;;;15.40;99.90;;;;;;4963608;28;47271;-86
2022/04/26 10:52:18;;;;;;;4.65;2.55;;;15.20;99.90;;;;;;4961180;28;37722;-78
2022/04/26 10:54:58;;;;;;;5.90;2.67;;;14.60;99.90;;;;;;4959863;28;39143;-82
2022/04/26 10:57:44;;;;;;;4.68;2.03;;;14.60;99.90;;;;;;4974755;28;37615;-81
2022/04/26 11:00:12;;;;;;;8.75;2.30;;;15.60;99.90;;;;;;4963159;28;39278;-80
2022/04/26 11:02:44;;;;;;;5.97;2.53;;;16.00;99.90;;;;;;4979377;28;39009;-80
2022/04/26 11:05:16;;;;;;;3.55;2.00;;;15.40;99.90;;;;;;4980079;28;38391;-82
2022/04/26 11:07:47;;;;;;;4.30;2.88;;;15.00;99.90;;;;;;4955148;28;38916;-79
2022/04/26 11:10:15;;;;;;;6.15;2.40;;;14.60;99.90;;;;;;4954464;28;36436;-79
2022/04/26 11:12:43;;;;;;;3.92;2.30;;;14.40;99.90;;;;;;4974676;28;39210;-78
2022/04/26 11:15:21;;;;;;;4.15;2.28;;;14.70;99.90;;;;;;4961449;28;38166;-82
2022/04/26 11:17:49;;;;;;;4.32;2.05;;;15.80;99.90;;;;;;4966654;28;35679;-81
2022/04/26 11:20:18;;;;;;;8.20;2.65;;;15.70;99.90;;;;;;4967823;28;37229;-79
2022/04/26 11:22:48;;;;;;;5.47;2.30;;;15.20;99.90;;;;;;4980229;28;38121;-80
2022/04/26 11:28:11;;;;;;;5.50;1.70;;;16.20;99.90;;;;;;4983372;28;38944;-86
2022/04/26 11:30:58;;;;;;;2.95;1.73;;;16.20;99.90;;;;;;4958932;28;47173;-81
2022/04/26 11:33:25;;;;;;;2.95;2.03;;;15.90;99.90;;;;;;4975205;28;37710;-80
2022/04/26 11:35:54;;;;;;;6.25;2.00;;;16.70;99.90;;;;;;4937414;28;39347;-80
2022/04/26 11:38:22;;;;;;;5.75;2.17;;;16.80;99.90;;;;;;4941744;28;38472;-79
2022/04/26 11:40:54;;;;;;;6.07;2.13;;;16.30;99.90;;;;;;4964979;28;37167;-82
2022/04/26 11:43:22;;;;;;;5.85;1.90;;;16.00;99.90;;;;;;4944420;28;38991;-85
2022/04/26 11:45:53;;;;;;;8.07;2.45;;;16.30;99.90;;;;;;4957113;28;38775;-82
2022/04/26 11:48:29;;;;;;;8.32;2.33;;;16.00;99.90;;;;;;4937664;28;39350;-79
2022/04/26 11:50:56;;;;;;;7.70;2.42;;;15.20;99.90;;;;;;4938486;28;38049;-80
2022/04/26 11:53:25;;;;;;;8.45;2.15;;;15.10;99.90;;;;;;4954144;28;38807;-80
2022/04/26 11:55:52;;;;;;;4.65;1.70;;;15.70;99.90;;;;;;4961072;28;39573;-81
2022/04/26 11:58:27;;;;;;;3.13;2.00;;;15.80;99.90;;;;;;4953894;28;37018;-82
2022/04/26 12:01:10;;;;;;;6.78;2.13;;;15.70;99.90;;;;;;4928521;28;36288;-77
2022/04/26 12:03:40;;;;;;;3.50;1.77;;;15.20;99.90;;;;;;4963519;28;48724;-80
2022/04/26 12:06:08;;;;;;;4.53;1.70;;;14.80;99.90;;;;;;4944485;28;37973;-81
2022/04/26 12:08:40;;;;;;;3.50;2.20;;;15.10;99.90;;;;;;4928289;28;37509;-84
2022/04/26 12:11:26;;;;;;;3.80;2.13;;;15.80;99.90;;;;;;4957762;28;37154;-82
2022/04/26 12:14:08;;;;;;;5.43;1.98;;;16.40;99.90;;;;;;4944294;28;39621;-81
2022/04/26 12:16:45;;;;;;;2.15;1.75;;;16.20;99.90;;;;;;4939087;28;47122;-80
2022/04/26 12:19:11;;;;;;;6.20;1.90;;;15.30;99.90;;;;;;4945761;28;37821;-80
2022/04/26 12:22:00;;;;;;;4.30;2.00;;;14.80;99.90;;;;;;4940024;28;39085;-80
2022/04/26 12:24:29;;;;;;;4.03;1.90;;;15.40;99.90;;;;;;4958779;28;40695;-80
2022/04/26 12:27:04;;;;;;;5.40;2.25;;;15.20;99.90;;;;;;4945007;28;39330;-79
2022/04/26 12:29:39;;;;;;;6.38;1.70;;;15.10;99.90;;;;;;4939314;28;47293;-78
2022/04/26 12:32:14;;;;;;;5.68;1.85;;;15.80;99.90;;;;;;4955505;28;39048;-79
2022/04/26 12:35:02;;;;;;;4.32;1.85;;;16.00;99.90;;;;;;4953683;28;39591;-78
2022/04/26 12:37:31;;;;;;;4.38;1.88;;;16.00;99.90;;;;;;4963103;28;47852;-78
2022/04/26 12:40:04;;;;;;;2.38;1.63;;;15.80;99.90;;;;;;4925310;28;37718;-77
2022/04/26 12:42:36;;;;;;;4.28;1.70;;;15.60;99.90;;;;;;4931937;28;46841;-82
2022/04/26 12:45:03;;;;;;;;;;;15.20;99.90;;;;;;4946110;28;39322;-80
2022/04/26 12:50:35;;;;;;;5.50;1.52;;;15.30;99.90;;;;;;4967381;28;37484;-80
2022/04/26 12:53:08;;;;;;;3.35;1.17;;;15.00;99.90;;;;;;4949816;28;36198;-81
2022/04/26 12:55:44;;;;;;;3.83;1.38;;;15.40;99.90;;;;;;4959449;28;47406;-77
2022/04/26 12:58:39;;;;;;;5.00;1.60;;;15.60;99.90;;;;;;4952930;28;39295;-77
2022/04/26 13:01:07;;;;;;;2.42;1.17;;;15.00;99.90;;;;;;4951029;28;39928;-78
2022/04/26 13:03:35;;;;;;;2.92;1.50;;;15.60;99.90;;;;;;4960321;28;36011;-77
2022/04/26 13:06:08;;;;;;;1.98;1.30;;;16.00;99.90;;;;;;4935798;28;38877;-77
2022/04/26 13:08:36;;;;;;;3.13;1.15;;;16.90;99.90;;;;;;4964634;28;38730;-77
2022/04/26 13:11:04;;;;;;;8.65;1.35;;;17.00;99.90;;;;;;4942068;28;37305;-76
2022/04/26 13:13:31;;;;;;;3.42;1.60;;;16.80;99.90;;;;;;4950542;28;37180;-77
2022/04/26 13:15:58;;;;;;;2.78;1.33;;;16.80;99.90;;;;;;4968381;28;39842;-77
2022/04/26 13:18:24;;;;;;;2.55;1.50;;;15.70;99.90;;;;;;4946347;28;38695;-77
2022/04/26 13:20:54;;;;;;;1.75;1.55;;;14.80;99.90;;;;;;4964624;28;38112;-79
2022/04/26 13:23:22;;;;;;;2.60;1.58;;;15.40;99.90;;;;;;4961521;28;36397;-79
2022/04/26 13:25:49;;;;;;;3.90;1.52;;;16.30;99.90;;;;;;4948523;28;37598;-81
2022/04/26 13:28:15;;;;;;;5.00;1.33;;;16.50;99.90;;;;;;4945863;28;40738;-78
2022/04/26 13:30:42;;;;;;;3.65;1.63;;;16.40;99.90;;;;;;4969333;28;39014;-81
2022/04/26 13:33:08;;;;;;;7.25;1.92;;;16.50;99.90;;;;;;4966541;28;38425;-80
2022/04/26 13:35:37;;;;;;;3.38;1.50;;;16.20;99.90;;;;;;4948489;28;39666;-81
2022/04/26 13:38:12;;;;;;;2.40;1.40;;;16.70;99.90;;;;;;4965196;28;38949;-81
2022/04/26 13:40:39;;;;;;;3.78;1.85;;;16.50;99.90;;;;;;4959619;28;38246;-79
2022/04/26 13:43:06;;;;;;;3.90;1.67;;;16.00;99.90;;;;;;4957633;28;36933;-82
2022/04/26 13:45:33;;;;;;;4.18;2.13;;;15.90;99.90;;;;;;4961534;28;39290;-80
2022/04/26 13:48:01;;;;;;;4.40;1.90;;;15.30;99.90;;;;;;4942473;28;39666;-79
2022/04/26 13:50:29;;;;;;;3.40;1.60;;;15.20;99.90;;;;;;4932430;28;47104;-78
2022/04/26 13:52:56;;;;;;;3.85;1.90;;;15.20;99.90;;;;;;4944216;28;36552;-80
2022/04/26 13:55:26;;;;;;;5.20;2.50;;;15.20;99.90;;;;;;4966317;28;39757;-79
2022/04/26 13:57:54;;;;;;;6.95;2.97;;;15.40;99.90;;;;;;4942741;28;39053;-79
2022/04/26 14:00:21;;;;;;;4.75;1.60;;;15.50;99.90;;;;;;4954154;28;37468;-79
2022/04/26 14:02:48;;;;;;;5.10;1.90;;;15.40;99.90;;;;;;4938476;28;37694;-79
2022/04/26 14:05:16;;;;;;;4.28;1.90;;;15.60;99.90;;;;;;4950054;28;39480;-78
2022/04/26 14:07:44;;;;;;;2.47;1.52;;;16.00;99.90;;;;;;4956173;28;39456;-80
2022/04/26 14:10:11;;;;;;;5.82;1.83;;;15.90;99.90;;;;;;4929632;28;42422;-79
2022/04/26 14:12:37;;;;;;;5.38;2.13;;;15.60;99.90;;;;;;4963040;28;38185;-78
2022/04/26 14:23:18;;;;;;;2.72;1.88;;;15.70;99.90;;;;;;4952427;28;38313;-79
2022/04/26 14:25:44;;;;;;;4.93;1.48;;;15.70;99.90;;;;;;4939543;28;38600;-79
2022/04/26 14:28:10;;;;;;;3.72;1.80;;;15.30;99.90;;;;;;4937633;28;39263;-81
2022/04/26 14:30:37;;;;;;;2.58;1.90;;;14.90;99.90;;;;;;4958551;28;38182;-80
2022/04/26 14:33:03;;;;;;;4.13;2.55;;;14.70;99.90;;;;;;4939654;28;37275;-79
2022/04/26 14:35:31;;;;;;;5.03;1.60;;;14.80;99.90;;;;;;4959627;28;40468;-78
2022/04/26 14:37:58;;;;;;;5.05;1.67;;;14.90;99.90;;;;;;4963265;28;40570;-80
2022/04/26 14:40:25;;;;;;;3.97;1.85;;;15.30;99.90;;;;;;4964826;28;38222;-80
2022/04/26 14:42:51;;;;;;;6.85;1.80;;;15.50;99.90;;;;;;4960506;28;38062;-77
2022/04/26 14:45:17;;;;;;;6.90;2.17;;;15.10;99.90;;;;;;4963163;28;39307;-82
2022/04/26 14:47:43;;;;;;;4.13;2.08;;;15.10;99.90;;;;;;4961692;28;39596;-80
2022/04/26 14:50:09;;;;;;;6.22;2.17;;;15.00;99.90;;;;;;4964292;28;38697;-79
2022/04/26 14:52:37;;;;;;;5.22;1.92;;;14.80;99.90;;;;;;4966820;28;37913;-79
2022/04/26 14:55:05;;;;;;;6.40;2.30;;;14.80;99.90;;;;;;4963915;28;39457;-79
2022/04/26 14:57:31;;;;;;;3.67;2.50;;;14.60;99.90;;;;;;4965893;28;39148;-80
2022/04/26 14:59:57;;;;;;;4.90;2.78;;;14.60;99.90;;;;;;4959735;28;37643;-82
2022/04/26 15:02:23;;;;;;;4.03;2.28;;;14.50;99.90;;;;;;4979451;28;37097;-78
2022/04/26 15:04:51;;;;;;;7.70;1.98;;;14.80;99.90;;;;;;4989471;28;38450;-79
2022/04/26 15:07:17;;;;;;;4.07;2.13;;;14.60;99.90;;;;;;4967856;28;39802;-80
2022/04/26 15:09:44;;;;;;;3.70;2.08;;;14.10;99.90;;;;;;4968905;28;37367;-81
2022/04/26 15:17:42;;;;;;;4.70;2.30;;;13.70;99.90;;;;;;4980446;28;49168;-77
2022/04/26 15:20:10;;;;;;;4.90;2.40;;;14.10;99.90;;;;;;4963221;28;37500;-77
2022/04/26 15:22:37;;;;;;;4.70;2.00;;;14.50;99.90;;;;;;4984820;28;36818;-77
2022/04/26 15:25:06;;;;;;;4.10;2.08;;;14.50;99.90;;;;;;4957513;28;37915;-77
2022/04/26 15:27:38;;;;;;;2.95;1.90;;;14.40;99.90;;;;;;4970747;28;39524;-77
2022/04/26 15:30:09;;;;;;;3.40;1.80;;;14.30;99.90;;;;;;4961965;28;37472;-80
2022/04/26 15:32:35;;;;;;;6.28;2.33;;;14.60;99.90;;;;;;4980293;28;38158;-76
2022/04/26 15:35:02;;;;;;;5.82;2.30;;;14.70;99.90;;;;;;4957644;28;37909;-77
2022/04/26 15:37:29;;;;;;;3.45;2.63;;;14.30;99.90;;;;;;4978859;28;38042;-76
2022/04/26 15:39:55;;;;;;;3.35;2.00;;;14.00;99.90;;;;;;4955424;28;39115;-76
2022/04/26 15:42:22;;;;;;;4.18;2.38;;;14.00;99.90;;;;;;4957515;28;37101;-75
2022/04/26 15:44:48;;;;;;;3.83;2.05;;;14.10;99.90;;;;;;4978119;28;38889;-75
2022/04/26 15:47:15;;;;;;;3.10;1.90;;;14.40;99.90;;;;;;4956472;28;37862;-76
2022/04/26 15:49:41;;;;;;;3.38;2.38;;;14.20;99.90;;;;;;4958508;28;37391;-76
2022/04/26 15:52:07;;;;;;;5.63;2.42;;;14.10;99.90;;;;;;4954526;28;36307;-80
2022/04/26 15:54:38;;;;;;;5.80;2.40;;;14.20;99.90;;;;;;4952913;28;36926;-78
2022/04/26 15:57:04;;;;;;;4.60;2.42;;;13.90;99.90;;;;;;4975171;28;38692;-80
2022/04/26 15:59:31;;;;;;;5.25;2.70;;;13.70;99.90;;;;;;4979289;28;39206;-80
2022/04/26 16:01:58;;;;;;;5.82;2.38;;;13.70;99.90;;;;;;4988786;28;36970;-79
2022/04/26 16:04:24;;;;;;;6.93;2.38;;;13.60;99.90;;;;;;4964198;28;37476;-81
2022/04/26 16:06:50;;;;;;;6.07;2.53;;;13.70;99.90;;;;;;4963271;28;38775;-79
2022/04/26 16:20:34;;;;;;;4.22;2.20;;;13.80;99.90;;;;;;4982168;28;40174;-78
2022/04/26 16:23:02;;;;;;;6.28;2.67;;;13.50;99.90;;;;;;4988860;28;37064;-77
2022/04/26 16:25:29;;;;;;;6.03;2.85;;;13.40;99.90;;;;;;4961445;28;47200;-80
2022/04/26 16:27:55;;;;;;;8.43;3.50;;;13.50;99.90;;;;;;4961917;28;37945;-81
2022/04/26 16:30:21;;;;;;;4.30;2.33;;;13.30;99.90;;;;;;4983883;28;39767;-81
2022/04/26 16:32:48;;;;;;;10.73;4.45;;;13.20;99.90;;;;;;4976280;28;35731;-81
2022/04/26 16:35:14;;;;;;;3.60;2.13;;;13.00;99.90;;;;;;4962796;28;37698;-81
2022/04/26 16:37:42;;;;;;;4.53;2.90;;;13.10;99.90;;;;;;4951125;28;38094;-81
2022/04/26 16:40:11;;;;;;;3.83;2.33;;;12.70;99.90;;;;;;4970309;28;37520;-81
2022/04/26 16:42:38;;;;;;;3.55;2.20;;;12.80;99.90;;;;;;4977322;28;36522;-80
2022/04/26 16:45:07;;;;;;;3.95;2.38;;;12.60;99.90;;;;;;4973320;28;36635;-81
2022/04/26 16:47:34;;;;;;;4.28;2.17;;;12.50;99.90;;;;;;4980810;28;39687;-82
2022/04/26 16:50:02;;;;;;;5.15;2.80;;;12.30;99.90;;;;;;4964526;28;38633;-82
2022/04/26 16:52:28;;;;;;;8.50;2.72;;;12.30;99.90;;;;;;4994213;28;47677;-80
2022/04/26 16:54:54;;;;;;;8.98;2.97;;;12.20;99.90;;;;;;4964286;28;37677;-81
2022/04/26 16:57:21;;;;;;;3.33;2.38;;;12.40;99.90;;;;;;4976213;28;38880;-80
2022/04/26 16:59:47;;;;;;;4.55;2.42;;;12.50;99.90;;;;;;4964111;28;37884;-79
2022/04/26 17:02:14;;;;;;;4.65;2.45;;;12.40;99.90;;;;;;4983920;28;37197;-80
2022/04/26 17:04:41;;;;;;;5.78;2.40;;;12.30;99.90;;;;;;4951729;28;37940;-81
2022/04/26 17:07:07;;;;;;;6.63;2.60;;;12.50;99.90;;;;;;4969631;28;38982;-80
2022/04/26 17:12:17;;;;;;;6.70;2.50;;;12.30;99.90;;;;;;4955681;28;20044;-80
2022/04/26 17:14:43;;;;;;;7.43;2.40;;;12.20;99.90;;;;;;4942421;28;39226;-81